sensor_id;sensor_type;location;lat;lon;timestamp;P1;durP1;ratioP1;P2;durP2;ratioP2
3815;SDS011;1923;48.154;11.536;2024-01-30T00:01:19;11.60;;;6.90;;
3815;SDS011;1923;48.154;11.536;2024-01-30T00:03:48;12.20;;;7.27;;
3815;SDS011;1923;48.154;11.536;2024-01-30T00:06:18;9.97;;;5.60;;
3815;SDS011;1923;48.154;11.536;2024-01-30T00:08:46;14.20;;;7.00;;
3815;SDS011;1923;48.154;11.536;2024-01-30T00:11:15;14.60;;;6.20;;
3815;SDS011;1923;48.154;11.536;2024-01-30T00:13:43;12.23;;;6.97;;
3815;SDS011;1923;48.154;11.536;2024-01-30T00:16:20;10.40;;;6.30;;
3815;SDS011;1923;48.154;11.536;2024-01-30T00:18:51;10.52;;;6.20;;
3815;SDS011;1923;48.154;11.536;2024-01-30T00:21:19;10.00;;;5.87;;
3815;SDS011;1923;48.154;11.536;2024-01-30T00:23:48;11.10;;;6.60;;
3815;SDS011;1923;48.154;11.536;2024-01-30T00:26:16;10.47;;;6.07;;
3815;SDS011;1923;48.154;11.536;2024-01-30T00:28:44;13.07;;;6.80;;
3815;SDS011;1923;48.154;11.536;2024-01-30T00:31:12;13.13;;;6.70;;
3815;SDS011;1923;48.154;11.536;2024-01-30T00:33:41;16.70;;;10.17;;
3815;SDS011;1923;48.154;11.536;2024-01-30T00:36:09;16.13;;;8.87;;
3815;SDS011;1923;48.154;11.536;2024-01-30T00:38:37;15.30;;;7.50;;
3815;SDS011;1923;48.154;11.536;2024-01-30T00:41:07;14.47;;;7.73;;
3815;SDS011;1923;48.154;11.536;2024-01-30T00:43:35;13.13;;;7.47;;
3815;SDS011;1923;48.154;11.536;2024-01-30T00:46:04;16.10;;;6.93;;
3815;SDS011;1923;48.154;11.536;2024-01-30T00:48:32;9.60;;;6.47;;
3815;SDS011;1923;48.154;11.536;2024-01-30T00:51:01;12.90;;;7.23;;
3815;SDS011;1923;48.154;11.536;2024-01-30T00:53:29;13.13;;;7.00;;
3815;SDS011;1923;48.154;11.536;2024-01-30T00:55:57;16.50;;;7.03;;
3815;SDS011;1923;48.154;11.536;2024-01-30T00:58:25;15.37;;;9.20;;
3815;SDS011;1923;48.154;11.536;2024-01-30T01:00:53;14.55;;;8.13;;
3815;SDS011;1923;48.154;11.536;2024-01-30T01:03:21;12.67;;;6.07;;
3815;SDS011;1923;48.154;11.536;2024-01-30T01:05:49;14.13;;;7.20;;
3815;SDS011;1923;48.154;11.536;2024-01-30T01:08:19;10.93;;;7.20;;
3815;SDS011;1923;48.154;11.536;2024-01-30T01:10:47;13.50;;;6.20;;
3815;SDS011;1923;48.154;11.536;2024-01-30T01:13:15;10.80;;;6.00;;
3815;SDS011;1923;48.154;11.536;2024-01-30T01:15:43;14.60;;;6.60;;
3815;SDS011;1923;48.154;11.536;2024-01-30T01:18:11;11.60;;;6.20;;
3815;SDS011;1923;48.154;11.536;2024-01-30T01:20:39;16.33;;;7.40;;
3815;SDS011;1923;48.154;11.536;2024-01-30T01:23:07;10.10;;;7.00;;
3815;SDS011;1923;48.154;11.536;2024-01-30T01:25:37;11.77;;;6.00;;
3815;SDS011;1923;48.154;11.536;2024-01-30T01:28:05;11.52;;;5.95;;
3815;SDS011;1923;48.154;11.536;2024-01-30T01:30:33;9.40;;;6.40;;
3815;SDS011;1923;48.154;11.536;2024-01-30T01:33:02;10.57;;;6.37;;
3815;SDS011;1923;48.154;11.536;2024-01-30T01:35:30;11.75;;;6.20;;
3815;SDS011;1923;48.154;11.536;2024-01-30T01:37:58;10.87;;;6.60;;
3815;SDS011;1923;48.154;11.536;2024-01-30T01:40:27;10.07;;;6.63;;
3815;SDS011;1923;48.154;11.536;2024-01-30T01:42:56;15.17;;;7.40;;
3815;SDS011;1923;48.154;11.536;2024-01-30T01:45:24;14.17;;;7.90;;
3815;SDS011;1923;48.154;11.536;2024-01-30T01:47:52;15.07;;;7.17;;
3815;SDS011;1923;48.154;11.536;2024-01-30T01:50:21;11.90;;;7.40;;
3815;SDS011;1923;48.154;11.536;2024-01-30T01:52:50;12.60;;;6.77;;
3815;SDS011;1923;48.154;11.536;2024-01-30T01:55:20;13.20;;;6.83;;
3815;SDS011;1923;48.154;11.536;2024-01-30T01:57:50;12.20;;;6.60;;
3815;SDS011;1923;48.154;11.536;2024-01-30T02:00:22;13.63;;;7.10;;
3815;SDS011;1923;48.154;11.536;2024-01-30T02:02:50;11.83;;;5.63;;
3815;SDS011;1923;48.154;11.536;2024-01-30T02:05:21;8.43;;;5.03;;
3815;SDS011;1923;48.154;11.536;2024-01-30T02:07:51;11.10;;;5.47;;
3815;SDS011;1923;48.154;11.536;2024-01-30T02:10:19;11.93;;;6.10;;
3815;SDS011;1923;48.154;11.536;2024-01-30T02:12:48;10.70;;;5.60;;
3815;SDS011;1923;48.154;11.536;2024-01-30T02:15:17;12.53;;;5.47;;
3815;SDS011;1923;48.154;11.536;2024-01-30T02:17:46;12.87;;;5.60;;
3815;SDS011;1923;48.154;11.536;2024-01-30T02:20:14;11.43;;;4.77;;
3815;SDS011;1923;48.154;11.536;2024-01-30T02:22:44;11.30;;;5.80;;
3815;SDS011;1923;48.154;11.536;2024-01-30T02:25:13;14.10;;;5.50;;
3815;SDS011;1923;48.154;11.536;2024-01-30T02:27:41;12.63;;;5.90;;
3815;SDS011;1923;48.154;11.536;2024-01-30T02:30:10;6.90;;;4.87;;
3815;SDS011;1923;48.154;11.536;2024-01-30T02:32:39;12.07;;;6.10;;
3815;SDS011;1923;48.154;11.536;2024-01-30T02:35:07;10.83;;;5.00;;
3815;SDS011;1923;48.154;11.536;2024-01-30T02:37:35;10.30;;;6.13;;
3815;SDS011;1923;48.154;11.536;2024-01-30T02:40:05;9.90;;;5.57;;
3815;SDS011;1923;48.154;11.536;2024-01-30T02:42:34;8.73;;;5.83;;
3815;SDS011;1923;48.154;11.536;2024-01-30T02:45:02;7.90;;;5.57;;
3815;SDS011;1923;48.154;11.536;2024-01-30T02:47:31;11.30;;;4.87;;
3815;SDS011;1923;48.154;11.536;2024-01-30T02:49:59;9.37;;;5.20;;
3815;SDS011;1923;48.154;11.536;2024-01-30T02:52:27;6.37;;;4.50;;
3815;SDS011;1923;48.154;11.536;2024-01-30T02:54:55;8.43;;;4.70;;
3815;SDS011;1923;48.154;11.536;2024-01-30T02:57:25;8.13;;;4.70;;
3815;SDS011;1923;48.154;11.536;2024-01-30T02:59:53;7.73;;;4.77;;
3815;SDS011;1923;48.154;11.536;2024-01-30T03:02:21;6.77;;;4.50;;
3815;SDS011;1923;48.154;11.536;2024-01-30T03:04:49;6.57;;;4.93;;
3815;SDS011;1923;48.154;11.536;2024-01-30T03:07:17;7.47;;;4.60;;
3815;SDS011;1923;48.154;11.536;2024-01-30T03:09:45;6.10;;;4.20;;
3815;SDS011;1923;48.154;11.536;2024-01-30T03:12:14;7.77;;;4.60;;
3815;SDS011;1923;48.154;11.536;2024-01-30T03:14:44;8.10;;;4.30;;
3815;SDS011;1923;48.154;11.536;2024-01-30T03:17:12;9.50;;;5.30;;
3815;SDS011;1923;48.154;11.536;2024-01-30T03:19:40;7.10;;;4.43;;
3815;SDS011;1923;48.154;11.536;2024-01-30T03:22:11;7.63;;;4.37;;
3815;SDS011;1923;48.154;11.536;2024-01-30T03:24:39;8.70;;;4.60;;
3815;SDS011;1923;48.154;11.536;2024-01-30T03:27:07;6.20;;;4.37;;
3815;SDS011;1923;48.154;11.536;2024-01-30T03:29:35;8.70;;;4.40;;
3815;SDS011;1923;48.154;11.536;2024-01-30T03:32:08;5.30;;;3.80;;
3815;SDS011;1923;48.154;11.536;2024-01-30T03:34:36;11.00;;;4.23;;
3815;SDS011;1923;48.154;11.536;2024-01-30T03:37:05;5.77;;;4.20;;
3815;SDS011;1923;48.154;11.536;2024-01-30T03:39:33;7.43;;;3.63;;
3815;SDS011;1923;48.154;11.536;2024-01-30T03:42:03;7.47;;;3.90;;
3815;SDS011;1923;48.154;11.536;2024-01-30T03:44:31;7.97;;;4.63;;
3815;SDS011;1923;48.154;11.536;2024-01-30T03:46:59;6.97;;;4.30;;
3815;SDS011;1923;48.154;11.536;2024-01-30T03:49:29;7.57;;;4.17;;
3815;SDS011;1923;48.154;11.536;2024-01-30T03:51:57;6.23;;;3.90;;
3815;SDS011;1923;48.154;11.536;2024-01-30T03:54:25;8.73;;;4.30;;
3815;SDS011;1923;48.154;11.536;2024-01-30T03:56:53;8.50;;;4.67;;
3815;SDS011;1923;48.154;11.536;2024-01-30T03:59:21;7.37;;;4.00;;
3815;SDS011;1923;48.154;11.536;2024-01-30T04:01:50;7.80;;;4.10;;
3815;SDS011;1923;48.154;11.536;2024-01-30T04:04:19;7.60;;;4.53;;
3815;SDS011;1923;48.154;11.536;2024-01-30T04:06:49;7.53;;;4.40;;
3815;SDS011;1923;48.154;11.536;2024-01-30T04:09:18;7.30;;;3.87;;
3815;SDS011;1923;48.154;11.536;2024-01-30T04:11:46;7.30;;;4.30;;
3815;SDS011;1923;48.154;11.536;2024-01-30T04:14:14;7.00;;;3.50;;
3815;SDS011;1923;48.154;11.536;2024-01-30T04:16:42;8.23;;;4.50;;
3815;SDS011;1923;48.154;11.536;2024-01-30T04:19:10;7.60;;;3.60;;
3815;SDS011;1923;48.154;11.536;2024-01-30T04:21:39;7.30;;;3.80;;
3815;SDS011;1923;48.154;11.536;2024-01-30T04:24:08;12.27;;;4.27;;
3815;SDS011;1923;48.154;11.536;2024-01-30T04:26:36;6.30;;;3.77;;
3815;SDS011;1923;48.154;11.536;2024-01-30T04:29:04;9.77;;;5.00;;
3815;SDS011;1923;48.154;11.536;2024-01-30T04:31:32;8.33;;;4.27;;
3815;SDS011;1923;48.154;11.536;2024-01-30T04:34:00;7.47;;;3.77;;
3815;SDS011;1923;48.154;11.536;2024-01-30T04:36:28;4.83;;;3.23;;
3815;SDS011;1923;48.154;11.536;2024-01-30T04:38:56;57.17;;;27.20;;
3815;SDS011;1923;48.154;11.536;2024-01-30T04:41:26;98.90;;;42.33;;
3815;SDS011;1923;48.154;11.536;2024-01-30T04:43:57;54.87;;;28.23;;
3815;SDS011;1923;48.154;11.536;2024-01-30T04:46:25;62.67;;;27.97;;
3815;SDS011;1923;48.154;11.536;2024-01-30T04:48:53;44.70;;;19.07;;
3815;SDS011;1923;48.154;11.536;2024-01-30T04:51:21;46.73;;;17.60;;
3815;SDS011;1923;48.154;11.536;2024-01-30T04:53:49;24.53;;;11.40;;
3815;SDS011;1923;48.154;11.536;2024-01-30T04:56:17;14.97;;;7.47;;
3815;SDS011;1923;48.154;11.536;2024-01-30T04:58:47;16.00;;;7.40;;
3815;SDS011;1923;48.154;11.536;2024-01-30T05:01:15;15.50;;;6.30;;
3815;SDS011;1923;48.154;11.536;2024-01-30T05:03:44;11.77;;;5.37;;
3815;SDS011;1923;48.154;11.536;2024-01-30T05:06:12;9.50;;;5.10;;
3815;SDS011;1923;48.154;11.536;2024-01-30T05:08:40;7.43;;;4.13;;
3815;SDS011;1923;48.154;11.536;2024-01-30T05:11:08;4.73;;;3.80;;
3815;SDS011;1923;48.154;11.536;2024-01-30T05:13:37;7.43;;;4.60;;
3815;SDS011;1923;48.154;11.536;2024-01-30T05:16:06;8.13;;;3.90;;
3815;SDS011;1923;48.154;11.536;2024-01-30T05:18:34;7.13;;;3.60;;
3815;SDS011;1923;48.154;11.536;2024-01-30T05:21:03;5.80;;;3.80;;
3815;SDS011;1923;48.154;11.536;2024-01-30T05:23:31;6.73;;;3.70;;
3815;SDS011;1923;48.154;11.536;2024-01-30T05:25:58;6.03;;;4.10;;
3815;SDS011;1923;48.154;11.536;2024-01-30T05:28:28;7.27;;;3.20;;
3815;SDS011;1923;48.154;11.536;2024-01-30T05:30:56;6.53;;;2.70;;
3815;SDS011;1923;48.154;11.536;2024-01-30T05:33:26;4.60;;;3.33;;
3815;SDS011;1923;48.154;11.536;2024-01-30T05:35:54;5.83;;;3.40;;
3815;SDS011;1923;48.154;11.536;2024-01-30T05:38:22;5.80;;;3.70;;
3815;SDS011;1923;48.154;11.536;2024-01-30T05:40:50;8.60;;;5.10;;
3815;SDS011;1923;48.154;11.536;2024-01-30T05:43:18;8.07;;;5.27;;
3815;SDS011;1923;48.154;11.536;2024-01-30T05:45:46;70.47;;;23.93;;
3815;SDS011;1923;48.154;11.536;2024-01-30T05:48:14;43.20;;;19.20;;
3815;SDS011;1923;48.154;11.536;2024-01-30T05:50:43;54.30;;;19.40;;
3815;SDS011;1923;48.154;11.536;2024-01-30T05:53:12;54.37;;;18.93;;
3815;SDS011;1923;48.154;11.536;2024-01-30T05:55:40;47.03;;;16.53;;
3815;SDS011;1923;48.154;11.536;2024-01-30T05:58:08;45.13;;;19.20;;
3815;SDS011;1923;48.154;11.536;2024-01-30T06:00:36;15.03;;;6.80;;
3815;SDS011;1923;48.154;11.536;2024-01-30T06:03:04;11.90;;;5.63;;
3815;SDS011;1923;48.154;11.536;2024-01-30T06:05:32;5.77;;;4.00;;
3815;SDS011;1923;48.154;11.536;2024-01-30T06:08:02;7.80;;;3.70;;
3815;SDS011;1923;48.154;11.536;2024-01-30T06:10:30;6.53;;;3.70;;
3815;SDS011;1923;48.154;11.536;2024-01-30T06:12:59;6.70;;;3.70;;
3815;SDS011;1923;48.154;11.536;2024-01-30T06:15:27;7.83;;;3.53;;
3815;SDS011;1923;48.154;11.536;2024-01-30T06:17:56;6.00;;;3.40;;
3815;SDS011;1923;48.154;11.536;2024-01-30T06:20:24;9.33;;;3.87;;
3815;SDS011;1923;48.154;11.536;2024-01-30T06:22:52;8.60;;;3.80;;
3815;SDS011;1923;48.154;11.536;2024-01-30T06:25:21;8.10;;;4.37;;
3815;SDS011;1923;48.154;11.536;2024-01-30T06:27:50;5.63;;;3.60;;
3815;SDS011;1923;48.154;11.536;2024-01-30T06:30:18;8.23;;;3.47;;
3815;SDS011;1923;48.154;11.536;2024-01-30T06:32:46;7.80;;;3.90;;
3815;SDS011;1923;48.154;11.536;2024-01-30T06:35:14;7.23;;;3.90;;
3815;SDS011;1923;48.154;11.536;2024-01-30T06:37:44;4.43;;;3.00;;
3815;SDS011;1923;48.154;11.536;2024-01-30T06:40:12;7.03;;;3.63;;
3815;SDS011;1923;48.154;11.536;2024-01-30T06:42:41;7.77;;;4.30;;
3815;SDS011;1923;48.154;11.536;2024-01-30T06:45:09;9.43;;;3.73;;
3815;SDS011;1923;48.154;11.536;2024-01-30T06:47:37;7.20;;;4.10;;
3815;SDS011;1923;48.154;11.536;2024-01-30T06:50:06;6.57;;;4.13;;
3815;SDS011;1923;48.154;11.536;2024-01-30T06:52:35;6.77;;;3.73;;
3815;SDS011;1923;48.154;11.536;2024-01-30T06:55:03;10.00;;;4.53;;
3815;SDS011;1923;48.154;11.536;2024-01-30T06:57:31;6.10;;;3.80;;
3815;SDS011;1923;48.154;11.536;2024-01-30T07:00:01;9.23;;;4.17;;
3815;SDS011;1923;48.154;11.536;2024-01-30T07:02:29;6.90;;;3.30;;
3815;SDS011;1923;48.154;11.536;2024-01-30T07:04:57;8.87;;;3.60;;
3815;SDS011;1923;48.154;11.536;2024-01-30T07:07:25;6.47;;;4.30;;
3815;SDS011;1923;48.154;11.536;2024-01-30T07:09:53;9.37;;;4.57;;
3815;SDS011;1923;48.154;11.536;2024-01-30T07:12:23;8.33;;;4.70;;
3815;SDS011;1923;48.154;11.536;2024-01-30T07:14:52;9.27;;;4.50;;
3815;SDS011;1923;48.154;11.536;2024-01-30T07:17:24;7.03;;;4.07;;
3815;SDS011;1923;48.154;11.536;2024-01-30T07:19:52;9.97;;;5.33;;
3815;SDS011;1923;48.154;11.536;2024-01-30T07:22:20;6.10;;;4.10;;
3815;SDS011;1923;48.154;11.536;2024-01-30T07:24:48;7.67;;;4.70;;
3815;SDS011;1923;48.154;11.536;2024-01-30T07:27:18;8.30;;;4.30;;
3815;SDS011;1923;48.154;11.536;2024-01-30T07:29:47;10.93;;;4.07;;
3815;SDS011;1923;48.154;11.536;2024-01-30T07:32:16;5.57;;;3.87;;
3815;SDS011;1923;48.154;11.536;2024-01-30T07:34:46;6.83;;;4.10;;
3815;SDS011;1923;48.154;11.536;2024-01-30T07:37:28;7.50;;;3.80;;
3815;SDS011;1923;48.154;11.536;2024-01-30T07:39:56;6.20;;;3.70;;
3815;SDS011;1923;48.154;11.536;2024-01-30T07:42:24;6.87;;;3.80;;
3815;SDS011;1923;48.154;11.536;2024-01-30T07:44:52;9.10;;;4.00;;
3815;SDS011;1923;48.154;11.536;2024-01-30T07:47:20;13.60;;;4.83;;
3815;SDS011;1923;48.154;11.536;2024-01-30T07:49:50;13.60;;;5.30;;
3815;SDS011;1923;48.154;11.536;2024-01-30T07:52:19;15.53;;;4.43;;
3815;SDS011;1923;48.154;11.536;2024-01-30T07:54:47;10.90;;;4.17;;
3815;SDS011;1923;48.154;11.536;2024-01-30T07:57:15;14.53;;;4.00;;
3815;SDS011;1923;48.154;11.536;2024-01-30T07:59:43;9.03;;;3.80;;
3815;SDS011;1923;48.154;11.536;2024-01-30T08:02:11;9.97;;;3.40;;
3815;SDS011;1923;48.154;11.536;2024-01-30T08:04:39;8.63;;;3.60;;
3815;SDS011;1923;48.154;11.536;2024-01-30T08:07:09;9.50;;;4.23;;
3815;SDS011;1923;48.154;11.536;2024-01-30T08:09:37;9.00;;;4.20;;
3815;SDS011;1923;48.154;11.536;2024-01-30T08:12:05;12.93;;;4.80;;
3815;SDS011;1923;48.154;11.536;2024-01-30T08:14:34;10.73;;;3.97;;
3815;SDS011;1923;48.154;11.536;2024-01-30T08:17:02;8.07;;;4.50;;
3815;SDS011;1923;48.154;11.536;2024-01-30T08:19:30;8.33;;;4.17;;
3815;SDS011;1923;48.154;11.536;2024-01-30T08:21:58;16.50;;;5.27;;
3815;SDS011;1923;48.154;11.536;2024-01-30T08:24:28;11.30;;;5.10;;
3815;SDS011;1923;48.154;11.536;2024-01-30T08:26:56;10.77;;;4.57;;
3815;SDS011;1923;48.154;11.536;2024-01-30T08:29:24;8.30;;;3.43;;
3815;SDS011;1923;48.154;11.536;2024-01-30T08:31:52;8.37;;;3.03;;
3815;SDS011;1923;48.154;11.536;2024-01-30T08:34:22;12.93;;;4.23;;
3815;SDS011;1923;48.154;11.536;2024-01-30T08:36:50;10.30;;;3.50;;
3815;SDS011;1923;48.154;11.536;2024-01-30T08:39:18;7.43;;;4.10;;
3815;SDS011;1923;48.154;11.536;2024-01-30T08:41:47;7.00;;;3.17;;
3815;SDS011;1923;48.154;11.536;2024-01-30T08:44:15;11.10;;;3.00;;
3815;SDS011;1923;48.154;11.536;2024-01-30T08:46:44;9.30;;;3.00;;
3815;SDS011;1923;48.154;11.536;2024-01-30T08:49:12;8.23;;;3.50;;
3815;SDS011;1923;48.154;11.536;2024-01-30T08:51:41;14.60;;;3.57;;
3815;SDS011;1923;48.154;11.536;2024-01-30T08:54:09;7.53;;;3.70;;
3815;SDS011;1923;48.154;11.536;2024-01-30T08:56:37;7.57;;;2.80;;
3815;SDS011;1923;48.154;11.536;2024-01-30T08:59:07;5.87;;;2.40;;
3815;SDS011;1923;48.154;11.536;2024-01-30T09:01:37;7.53;;;2.53;;
3815;SDS011;1923;48.154;11.536;2024-01-30T09:04:09;5.90;;;2.73;;
3815;SDS011;1923;48.154;11.536;2024-01-30T09:06:38;11.33;;;3.37;;
3815;SDS011;1923;48.154;11.536;2024-01-30T09:09:06;10.17;;;2.80;;
3815;SDS011;1923;48.154;11.536;2024-01-30T09:11:34;7.63;;;3.70;;
3815;SDS011;1923;48.154;11.536;2024-01-30T09:14:03;7.97;;;2.90;;
3815;SDS011;1923;48.154;11.536;2024-01-30T09:16:33;7.90;;;2.30;;
3815;SDS011;1923;48.154;11.536;2024-01-30T09:19:01;9.13;;;2.77;;
3815;SDS011;1923;48.154;11.536;2024-01-30T09:21:29;11.23;;;3.53;;
3815;SDS011;1923;48.154;11.536;2024-01-30T09:24:01;7.60;;;3.63;;
3815;SDS011;1923;48.154;11.536;2024-01-30T09:26:30;12.77;;;3.77;;
3815;SDS011;1923;48.154;11.536;2024-01-30T09:28:58;9.33;;;2.70;;
3815;SDS011;1923;48.154;11.536;2024-01-30T09:31:26;14.63;;;3.60;;
3815;SDS011;1923;48.154;11.536;2024-01-30T09:33:57;12.80;;;3.57;;
3815;SDS011;1923;48.154;11.536;2024-01-30T09:36:25;11.63;;;3.27;;
3815;SDS011;1923;48.154;11.536;2024-01-30T09:38:54;7.47;;;2.63;;
3815;SDS011;1923;48.154;11.536;2024-01-30T09:41:22;5.60;;;2.50;;
3815;SDS011;1923;48.154;11.536;2024-01-30T09:43:52;19.90;;;3.60;;
3815;SDS011;1923;48.154;11.536;2024-01-30T09:46:22;3.60;;;1.90;;
3815;SDS011;1923;48.154;11.536;2024-01-30T09:48:54;9.13;;;3.13;;
3815;SDS011;1923;48.154;11.536;2024-01-30T09:51:24;9.90;;;2.93;;
3815;SDS011;1923;48.154;11.536;2024-01-30T09:53:53;5.60;;;2.80;;
3815;SDS011;1923;48.154;11.536;2024-01-30T09:56:22;7.30;;;2.85;;
3815;SDS011;1923;48.154;11.536;2024-01-30T09:58:50;3.83;;;2.10;;
3815;SDS011;1923;48.154;11.536;2024-01-30T10:01:18;8.40;;;1.90;;
3815;SDS011;1923;48.154;11.536;2024-01-30T10:03:47;6.87;;;2.67;;
3815;SDS011;1923;48.154;11.536;2024-01-30T10:06:16;5.73;;;3.00;;
3815;SDS011;1923;48.154;11.536;2024-01-30T10:08:47;7.03;;;2.67;;
3815;SDS011;1923;48.154;11.536;2024-01-30T10:11:14;9.40;;;3.10;;
3815;SDS011;1923;48.154;11.536;2024-01-30T10:13:42;7.77;;;2.80;;
3815;SDS011;1923;48.154;11.536;2024-01-30T10:16:13;6.20;;;2.40;;
3815;SDS011;1923;48.154;11.536;2024-01-30T10:18:41;9.37;;;3.07;;
3815;SDS011;1923;48.154;11.536;2024-01-30T10:21:10;5.60;;;3.57;;
3815;SDS011;1923;48.154;11.536;2024-01-30T10:23:39;6.80;;;3.07;;
3815;SDS011;1923;48.154;11.536;2024-01-30T10:26:07;3.93;;;2.73;;
3815;SDS011;1923;48.154;11.536;2024-01-30T10:28:35;7.30;;;3.07;;
3815;SDS011;1923;48.154;11.536;2024-01-30T10:31:03;8.10;;;3.17;;
3815;SDS011;1923;48.154;11.536;2024-01-30T10:33:32;6.60;;;2.70;;
3815;SDS011;1923;48.154;11.536;2024-01-30T10:36:01;9.87;;;3.30;;
3815;SDS011;1923;48.154;11.536;2024-01-30T10:38:31;5.57;;;2.87;;
3815;SDS011;1923;48.154;11.536;2024-01-30T10:41:01;8.60;;;3.20;;
3815;SDS011;1923;48.154;11.536;2024-01-30T10:43:31;6.60;;;3.10;;
3815;SDS011;1923;48.154;11.536;2024-01-30T10:46:03;13.00;;;2.87;;
3815;SDS011;1923;48.154;11.536;2024-01-30T10:48:34;7.65;;;2.90;;
3815;SDS011;1923;48.154;11.536;2024-01-30T10:51:09;4.73;;;2.30;;
3815;SDS011;1923;48.154;11.536;2024-01-30T10:53:38;3.97;;;2.57;;
3815;SDS011;1923;48.154;11.536;2024-01-30T10:56:08;4.70;;;2.40;;
3815;SDS011;1923;48.154;11.536;2024-01-30T10:58:39;2.43;;;1.77;;
3815;SDS011;1923;48.154;11.536;2024-01-30T11:01:07;12.83;;;2.37;;
3815;SDS011;1923;48.154;11.536;2024-01-30T11:03:36;4.17;;;2.47;;
3815;SDS011;1923;48.154;11.536;2024-01-30T11:06:04;8.60;;;2.40;;
3815;SDS011;1923;48.154;11.536;2024-01-30T11:08:37;6.43;;;3.00;;
3815;SDS011;1923;48.154;11.536;2024-01-30T11:11:09;7.50;;;2.80;;
3815;SDS011;1923;48.154;11.536;2024-01-30T11:13:40;3.30;;;1.77;;
3815;SDS011;1923;48.154;11.536;2024-01-30T11:16:09;3.50;;;2.20;;
3815;SDS011;1923;48.154;11.536;2024-01-30T11:18:39;6.80;;;3.47;;
3815;SDS011;1923;48.154;11.536;2024-01-30T11:21:07;4.13;;;2.03;;
3815;SDS011;1923;48.154;11.536;2024-01-30T11:23:36;21.47;;;10.90;;
3815;SDS011;1923;48.154;11.536;2024-01-30T11:26:05;9.32;;;4.55;;
3815;SDS011;1923;48.154;11.536;2024-01-30T11:28:35;7.07;;;2.40;;
3815;SDS011;1923;48.154;11.536;2024-01-30T11:31:05;3.33;;;2.60;;
3815;SDS011;1923;48.154;11.536;2024-01-30T11:33:34;11.53;;;2.40;;
3815;SDS011;1923;48.154;11.536;2024-01-30T11:36:03;2.90;;;1.83;;
3815;SDS011;1923;48.154;11.536;2024-01-30T11:38:33;12.13;;;2.50;;
3815;SDS011;1923;48.154;11.536;2024-01-30T11:41:02;4.75;;;1.92;;
3815;SDS011;1923;48.154;11.536;2024-01-30T11:43:31;4.57;;;2.90;;
3815;SDS011;1923;48.154;11.536;2024-01-30T11:46:03;6.70;;;3.53;;
3815;SDS011;1923;48.154;11.536;2024-01-30T11:48:33;27.83;;;13.00;;
3815;SDS011;1923;48.154;11.536;2024-01-30T11:51:02;6.17;;;2.30;;
3815;SDS011;1923;48.154;11.536;2024-01-30T11:53:30;12.63;;;6.40;;
3815;SDS011;1923;48.154;11.536;2024-01-30T11:55:58;10.40;;;6.07;;
3815;SDS011;1923;48.154;11.536;2024-01-30T11:58:26;7.33;;;2.90;;
3815;SDS011;1923;48.154;11.536;2024-01-30T12:00:55;8.70;;;2.73;;
3815;SDS011;1923;48.154;11.536;2024-01-30T12:03:25;5.43;;;2.37;;
3815;SDS011;1923;48.154;11.536;2024-01-30T12:05:56;8.13;;;2.90;;
3815;SDS011;1923;48.154;11.536;2024-01-30T12:08:26;7.63;;;4.60;;
3815;SDS011;1923;48.154;11.536;2024-01-30T12:10:55;8.60;;;4.17;;
3815;SDS011;1923;48.154;11.536;2024-01-30T12:13:24;4.30;;;2.60;;
3815;SDS011;1923;48.154;11.536;2024-01-30T12:15:58;4.90;;;4.03;;
3815;SDS011;1923;48.154;11.536;2024-01-30T12:18:28;4.97;;;2.42;;
3815;SDS011;1923;48.154;11.536;2024-01-30T12:20:57;7.03;;;3.60;;
3815;SDS011;1923;48.154;11.536;2024-01-30T12:23:26;11.90;;;5.53;;
3815;SDS011;1923;48.154;11.536;2024-01-30T12:25:55;8.73;;;3.40;;
3815;SDS011;1923;48.154;11.536;2024-01-30T12:28:24;13.60;;;5.17;;
3815;SDS011;1923;48.154;11.536;2024-01-30T12:30:55;8.90;;;3.93;;
3815;SDS011;1923;48.154;11.536;2024-01-30T12:33:26;8.83;;;2.70;;
3815;SDS011;1923;48.154;11.536;2024-01-30T12:35:55;4.63;;;2.40;;
3815;SDS011;1923;48.154;11.536;2024-01-30T12:38:29;4.03;;;2.20;;
3815;SDS011;1923;48.154;11.536;2024-01-30T12:40:57;3.90;;;2.17;;
3815;SDS011;1923;48.154;11.536;2024-01-30T12:43:25;3.13;;;1.60;;
3815;SDS011;1923;48.154;11.536;2024-01-30T12:46:04;10.37;;;3.63;;
3815;SDS011;1923;48.154;11.536;2024-01-30T12:48:33;22.63;;;6.00;;
3815;SDS011;1923;48.154;11.536;2024-01-30T12:51:02;4.00;;;2.07;;
3815;SDS011;1923;48.154;11.536;2024-01-30T12:53:31;3.80;;;1.80;;
3815;SDS011;1923;48.154;11.536;2024-01-30T12:56:00;4.53;;;2.27;;
3815;SDS011;1923;48.154;11.536;2024-01-30T12:58:28;5.77;;;2.10;;
3815;SDS011;1923;48.154;11.536;2024-01-30T13:00:56;8.80;;;1.60;;
3815;SDS011;1923;48.154;11.536;2024-01-30T13:03:24;3.97;;;1.93;;
3815;SDS011;1923;48.154;11.536;2024-01-30T13:05:52;11.27;;;3.00;;
3815;SDS011;1923;48.154;11.536;2024-01-30T13:08:22;3.00;;;2.10;;
3815;SDS011;1923;48.154;11.536;2024-01-30T13:10:50;6.05;;;1.90;;
3815;SDS011;1923;48.154;11.536;2024-01-30T13:13:19;18.43;;;7.07;;
3815;SDS011;1923;48.154;11.536;2024-01-30T13:15:47;12.07;;;5.03;;
3815;SDS011;1923;48.154;11.536;2024-01-30T13:18:15;11.90;;;6.50;;
3815;SDS011;1923;48.154;11.536;2024-01-30T13:20:44;7.80;;;3.90;;
3815;SDS011;1923;48.154;11.536;2024-01-30T13:23:12;5.23;;;2.40;;
3815;SDS011;1923;48.154;11.536;2024-01-30T13:25:41;8.10;;;3.10;;
3815;SDS011;1923;48.154;11.536;2024-01-30T13:28:09;5.10;;;2.83;;
3815;SDS011;1923;48.154;11.536;2024-01-30T13:30:37;5.43;;;2.63;;
3815;SDS011;1923;48.154;11.536;2024-01-30T13:33:06;10.40;;;3.33;;
3815;SDS011;1923;48.154;11.536;2024-01-30T13:35:34;6.30;;;2.60;;
3815;SDS011;1923;48.154;11.536;2024-01-30T13:38:02;14.20;;;5.30;;
3815;SDS011;1923;48.154;11.536;2024-01-30T13:40:30;6.03;;;2.03;;
3815;SDS011;1923;48.154;11.536;2024-01-30T13:43:00;9.57;;;3.40;;
3815;SDS011;1923;48.154;11.536;2024-01-30T13:45:28;17.10;;;5.13;;
3815;SDS011;1923;48.154;11.536;2024-01-30T13:47:56;6.73;;;2.50;;
3815;SDS011;1923;48.154;11.536;2024-01-30T13:50:26;7.83;;;3.77;;
3815;SDS011;1923;48.154;11.536;2024-01-30T13:52:54;3.83;;;2.17;;
3815;SDS011;1923;48.154;11.536;2024-01-30T13:55:24;6.80;;;2.17;;
3815;SDS011;1923;48.154;11.536;2024-01-30T13:57:52;5.60;;;2.13;;
3815;SDS011;1923;48.154;11.536;2024-01-30T14:00:21;3.03;;;1.77;;
3815;SDS011;1923;48.154;11.536;2024-01-30T14:02:51;3.03;;;1.60;;
3815;SDS011;1923;48.154;11.536;2024-01-30T14:05:22;5.50;;;1.57;;
3815;SDS011;1923;48.154;11.536;2024-01-30T14:07:51;5.37;;;1.90;;
3815;SDS011;1923;48.154;11.536;2024-01-30T14:10:19;2.83;;;1.60;;
3815;SDS011;1923;48.154;11.536;2024-01-30T14:12:47;9.10;;;2.40;;
3815;SDS011;1923;48.154;11.536;2024-01-30T14:15:16;6.65;;;2.10;;
3815;SDS011;1923;48.154;11.536;2024-01-30T14:17:55;3.53;;;1.30;;
3815;SDS011;1923;48.154;11.536;2024-01-30T14:20:25;5.60;;;1.90;;
3815;SDS011;1923;48.154;11.536;2024-01-30T14:22:53;3.27;;;1.60;;
3815;SDS011;1923;48.154;11.536;2024-01-30T14:25:22;13.50;;;2.40;;
3815;SDS011;1923;48.154;11.536;2024-01-30T14:27:51;2.87;;;1.63;;
3815;SDS011;1923;48.154;11.536;2024-01-30T14:30:19;7.73;;;2.30;;
3815;SDS011;1923;48.154;11.536;2024-01-30T14:32:47;13.63;;;2.20;;
3815;SDS011;1923;48.154;11.536;2024-01-30T14:35:17;3.35;;;2.20;;
3815;SDS011;1923;48.154;11.536;2024-01-30T14:37:46;5.20;;;2.10;;
3815;SDS011;1923;48.154;11.536;2024-01-30T14:40:14;4.40;;;1.83;;
3815;SDS011;1923;48.154;11.536;2024-01-30T14:42:43;4.60;;;1.60;;
3815;SDS011;1923;48.154;11.536;2024-01-30T14:45:11;7.43;;;1.90;;
3815;SDS011;1923;48.154;11.536;2024-01-30T14:47:39;3.57;;;1.80;;
3815;SDS011;1923;48.154;11.536;2024-01-30T14:50:08;3.53;;;1.97;;
3815;SDS011;1923;48.154;11.536;2024-01-30T14:52:38;6.25;;;1.50;;
3815;SDS011;1923;48.154;11.536;2024-01-30T14:55:07;7.00;;;1.67;;
3815;SDS011;1923;48.154;11.536;2024-01-30T14:57:35;4.10;;;2.10;;
3815;SDS011;1923;48.154;11.536;2024-01-30T15:00:05;2.77;;;1.67;;
3815;SDS011;1923;48.154;11.536;2024-01-30T15:02:35;6.37;;;2.10;;
3815;SDS011;1923;48.154;11.536;2024-01-30T15:05:03;8.93;;;2.33;;